Time;durP1;ratioP1;P1;durP2;ratioP2;P2;SDS_P1;SDS_P2;PMS_P1;PMS_P2;Temp;Humidity;BMP_temperature;BMP_pressure;BME280_temperature;BME280_humidity;BME280_pressure;Samples;Min_cycle;Max_cycle;Signal;HPM_P1;HPM_P2
2023/08/03 00:00:00;;;;;;;5.13;1.88;;;;;;;;;;4972919;28;20575;-62
2023/08/03 00:02:28;;;;;;;2.20;1.35;;;;;;;;;;4987452;28;20038;-62
2023/08/03 00:04:54;;;;;;;2.67;1.20;;;;;;;;;;4987852;28;20401;-62
2023/08/03 00:07:21;;;;;;;4.13;1.70;;;;;;;;;;4988961;28;20085;-63
2023/08/03 00:09:47;;;;;;;2.88;1.48;;;;;;;;;;4987583;28;20085;-62
2023/08/03 00:12:17;;;;;;;2.90;1.27;;;;;;;;;;4987628;28;20085;-62
2023/08/03 00:14:43;;;;;;;4.53;1.65;;;;;;;;;;4984028;28;20061;-62
2023/08/03 00:17:09;;;;;;;4.50;1.60;;;;;;;;;;4985398;28;20406;-62
2023/08/03 00:19:36;;;;;;;3.70;1.30;;;;;;;;;;4970143;28;20253;-62
2023/08/03 00:22:02;;;;;;;5.90;1.17;;;;;;;;;;4985506;28;20046;-62
2023/08/03 00:24:28;;;;;;;3.72;1.50;;;;;;;;;;4986274;28;20496;-62
2023/08/03 00:26:55;;;;;;;2.35;1.20;;;;;;;;;;4988044;28;20851;-62
2023/08/03 00:29:21;;;;;;;4.97;1.80;;;;;;;;;;4986561;28;20042;-62
2023/08/03 00:31:47;;;;;;;2.00;1.05;;;;;;;;;;4988837;28;20150;-62
2023/08/03 00:34:13;;;;;;;7.75;1.42;;;;;;;;;;4984614;28;20069;-62
2023/08/03 00:36:39;;;;;;;8.93;1.77;;;;;;;;;;4988224;28;20119;-61
2023/08/03 00:39:05;;;;;;;5.63;2.00;;;;;;;;;;4989543;28;20992;-62
2023/08/03 00:41:32;;;;;;;2.90;1.10;;;;;;;;;;4986828;28;20038;-61
2023/08/03 00:43:58;;;;;;;4.85;1.30;;;;;;;;;;4985188;28;20046;-62
2023/08/03 00:46:25;;;;;;;2.95;1.20;;;;;;;;;;4953421;28;20493;-62
2023/08/03 00:48:52;;;;;;;6.60;1.00;;;;;;;;;;4984132;28;20060;-62
2023/08/03 00:51:19;;;;;;;1.52;0.98;;;;;;;;;;4985728;28;20375;-62
2023/08/03 00:53:46;;;;;;;4.82;1.70;;;;;;;;;;4970746;28;20048;-62
2023/08/03 00:56:13;;;;;;;3.03;1.23;;;;;;;;;;4988067;28;20042;-62
2023/08/03 00:58:40;;;;;;;5.35;1.83;;;;;;;;;;4989699;28;20034;-62
2023/08/03 01:01:06;;;;;;;3.72;1.42;;;;;;;;;;4985723;28;20038;-62
2023/08/03 01:03:32;;;;;;;3.10;1.10;;;;;;;;;;4986009;28;20402;-61
2023/08/03 01:06:04;;;;;;;3.35;1.70;;;;;;;;;;4985838;28;20443;-62
2023/08/03 01:08:31;;;;;;;4.47;1.15;;;;;;;;;;4986400;28;20049;-62
2023/08/03 01:10:57;;;;;;;3.22;1.20;;;;;;;;;;4968835;28;20157;-62
2023/08/03 01:13:23;;;;;;;2.67;1.30;;;;;;;;;;4986287;28;20096;-61
2023/08/03 01:15:49;;;;;;;4.93;1.30;;;;;;;;;;4985395;28;20042;-61
2023/08/03 01:18:15;;;;;;;3.17;1.08;;;;;;;;;;4986202;28;20045;-61
2023/08/03 01:20:43;;;;;;;1.77;1.13;;;;;;;;;;4985721;28;20073;-62
2023/08/03 01:23:10;;;;;;;2.80;1.13;;;;;;;;;;4980602;28;20046;-62
2023/08/03 01:25:36;;;;;;;2.88;1.17;;;;;;;;;;4981856;28;20435;-62
2023/08/03 01:28:05;;;;;;;2.55;1.35;;;;;;;;;;4986831;28;20041;-62
2023/08/03 01:30:32;;;;;;;2.08;0.93;;;;;;;;;;4985740;28;20044;-62
2023/08/03 01:32:59;;;;;;;3.85;1.17;;;;;;;;;;4967554;28;20046;-62
2023/08/03 01:35:25;;;;;;;1.77;0.70;;;;;;;;;;4987749;28;20133;-62
2023/08/03 01:37:52;;;;;;;1.83;1.25;;;;;;;;;;4987412;28;20095;-61
2023/08/03 01:40:18;;;;;;;1.40;1.00;;;;;;;;;;4988111;28;20042;-62
2023/08/03 01:42:45;;;;;;;1.85;0.90;;;;;;;;;;4986401;28;20216;-62
2023/08/03 01:45:11;;;;;;;2.13;0.80;;;;;;;;;;4987403;28;20046;-62
2023/08/03 01:47:37;;;;;;;1.25;0.85;;;;;;;;;;4985718;28;20521;-62
2023/08/03 01:50:04;;;;;;;3.78;1.48;;;;;;;;;;4972092;28;20046;-62
2023/08/03 01:52:30;;;;;;;2.05;0.95;;;;;;;;;;4983234;28;20042;-63
2023/08/03 01:54:56;;;;;;;13.55;1.33;;;;;;;;;;4985927;28;20108;-62
2023/08/03 01:57:22;;;;;;;2.25;0.98;;;;;;;;;;4990388;28;20092;-62
2023/08/03 01:59:48;;;;;;;1.35;0.85;;;;;;;;;;4997165;28;20038;-62
2023/08/03 02:02:15;;;;;;;3.67;1.00;;;;;;;;;;4997793;28;20153;-62
2023/08/03 02:04:41;;;;;;;1.02;0.60;;;;;;;;;;4986165;28;20037;-62
2023/08/03 02:07:17;;;;;;;1.13;0.75;;;;;;;;;;4973985;28;20049;-62
2023/08/03 02:09:43;;;;;;;3.13;1.45;;;;;;;;;;4989346;28;20046;-62
2023/08/03 02:12:09;;;;;;;1.23;0.82;;;;;;;;;;4987166;28;20054;-62
2023/08/03 02:14:35;;;;;;;1.08;0.90;;;;;;;;;;4983573;28;20117;-62
2023/08/03 02:17:02;;;;;;;1.42;0.70;;;;;;;;;;4989391;28;20125;-62
2023/08/03 02:19:28;;;;;;;1.42;0.88;;;;;;;;;;4973712;28;20166;-62
2023/08/03 02:21:57;;;;;;;1.65;0.90;;;;;;;;;;4973810;28;20082;-62
2023/08/03 02:24:23;;;;;;;1.50;0.90;;;;;;;;;;4989860;28;20041;-62
2023/08/03 02:26:49;;;;;;;2.17;1.00;;;;;;;;;;4991508;28;20084;-62
2023/08/03 02:29:16;;;;;;;2.05;0.80;;;;;;;;;;4990597;28;20046;-62
2023/08/03 02:31:42;;;;;;;1.73;0.68;;;;;;;;;;4989430;28;20094;-62
2023/08/03 02:34:08;;;;;;;1.95;0.93;;;;;;;;;;4988650;28;20050;-62
2023/08/03 02:36:34;;;;;;;1.02;0.77;;;;;;;;;;4988284;28;20046;-62
2023/08/03 02:39:00;;;;;;;1.10;0.80;;;;;;;;;;4990354;28;20129;-62
2023/08/03 02:41:26;;;;;;;1.92;0.98;;;;;;;;;;4989945;28;20053;-62
2023/08/03 02:43:52;;;;;;;1.13;0.75;;;;;;;;;;4988741;28;20042;-62
2023/08/03 02:46:18;;;;;;;1.75;0.80;;;;;;;;;;4990041;28;20088;-62
2023/08/03 02:48:44;;;;;;;0.95;0.82;;;;;;;;;;4989869;28;20065;-62
2023/08/03 02:51:11;;;;;;;1.38;0.88;;;;;;;;;;4988477;28;20081;-62
2023/08/03 02:53:37;;;;;;;1.17;0.73;;;;;;;;;;4991488;28;20049;-62
2023/08/03 02:56:03;;;;;;;1.67;0.75;;;;;;;;;;4991681;28;20069;-62
2023/08/03 02:58:29;;;;;;;2.65;1.00;;;;;;;;;;4976050;28;20038;-62
2023/08/03 03:00:55;;;;;;;2.72;1.10;;;;;;;;;;4991385;28;20517;-62
2023/08/03 03:03:21;;;;;;;0.57;0.50;;;;;;;;;;4992282;28;20111;-62
2023/08/03 03:05:47;;;;;;;1.38;0.70;;;;;;;;;;4987795;28;20103;-62
2023/08/03 03:08:13;;;;;;;1.48;0.80;;;;;;;;;;4988926;28;20061;-62
2023/08/03 03:10:40;;;;;;;1.63;0.80;;;;;;;;;;4990274;28;20722;-62
2023/08/03 03:13:06;;;;;;;2.75;1.25;;;;;;;;;;4975207;28;20066;-62
2023/08/03 03:15:32;;;;;;;3.60;0.77;;;;;;;;;;4988732;28;20042;-62
2023/08/03 03:17:58;;;;;;;1.77;0.80;;;;;;;;;;4990428;28;20062;-62
2023/08/03 03:20:24;;;;;;;2.47;1.25;;;;;;;;;;4971997;28;20038;-62
2023/08/03 03:22:50;;;;;;;2.47;0.70;;;;;;;;;;4990747;28;20048;-62
2023/08/03 03:25:16;;;;;;;1.77;0.82;;;;;;;;;;4988493;28;20500;-62
2023/08/03 03:27:43;;;;;;;4.35;1.00;;;;;;;;;;4999152;28;20066;-62
2023/08/03 03:30:09;;;;;;;5.47;1.10;;;;;;;;;;4972308;28;20050;-62
2023/08/03 03:32:35;;;;;;;3.60;1.05;;;;;;;;;;4988686;28;20042;-62
2023/08/03 03:35:01;;;;;;;1.02;0.80;;;;;;;;;;4986582;28;20046;-62
2023/08/03 03:37:27;;;;;;;2.35;1.30;;;;;;;;;;4987795;28;20038;-62
2023/08/03 03:39:53;;;;;;;2.05;1.27;;;;;;;;;;4971934;28;20040;-62
2023/08/03 03:42:19;;;;;;;3.47;1.30;;;;;;;;;;4990656;28;20042;-62
2023/08/03 03:44:48;;;;;;;2.88;1.15;;;;;;;;;;4989285;28;20070;-62
2023/08/03 03:47:15;;;;;;;3.40;1.50;;;;;;;;;;4991551;28;20042;-62
2023/08/03 03:49:41;;;;;;;2.85;1.23;;;;;;;;;;4981997;28;20084;-62
2023/08/03 03:52:07;;;;;;;3.30;1.50;;;;;;;;;;4988684;28;20042;-62
2023/08/03 03:54:33;;;;;;;2.97;1.40;;;;;;;;;;4987718;28;20038;-62
2023/08/03 03:57:00;;;;;;;3.72;1.63;;;;;;;;;;4994117;28;20046;-62
2023/08/03 03:59:27;;;;;;;2.72;1.30;;;;;;;;;;4986741;28;20097;-62
2023/08/03 04:01:53;;;;;;;3.38;1.50;;;;;;;;;;4983726;28;20049;-62
2023/08/03 04:04:19;;;;;;;3.45;1.55;;;;;;;;;;4994103;28;20046;-61
2023/08/03 04:06:45;;;;;;;2.60;1.02;;;;;;;;;;4989091;28;20042;-61
2023/08/03 04:09:11;;;;;;;3.72;1.55;;;;;;;;;;4993791;28;20401;-63
2023/08/03 04:11:37;;;;;;;5.10;1.77;;;;;;;;;;4990986;28;20084;-62
2023/08/03 04:14:03;;;;;;;5.22;1.70;;;;;;;;;;4986699;28;20091;-62
2023/08/03 04:16:29;;;;;;;3.90;2.03;;;;;;;;;;4993449;28;20049;-62
2023/08/03 04:18:56;;;;;;;3.55;1.90;;;;;;;;;;4956064;28;20256;-61
2023/08/03 04:21:22;;;;;;;5.68;1.85;;;;;;;;;;4968386;28;20050;-62
2023/08/03 04:23:48;;;;;;;3.65;1.60;;;;;;;;;;4977015;28;20061;-61
2023/08/03 04:26:14;;;;;;;6.88;2.53;;;;;;;;;;4977380;28;20034;-62
2023/08/03 04:28:42;;;;;;;2.58;1.50;;;;;;;;;;4983835;28;20047;-62
2023/08/03 04:31:09;;;;;;;2.85;2.20;;;;;;;;;;4988290;28;20487;-61
2023/08/03 04:33:35;;;;;;;4.68;1.58;;;;;;;;;;4988120;28;20442;-61
2023/08/03 04:36:01;;;;;;;6.72;2.03;;;;;;;;;;4990173;28;20046;-61
2023/08/03 04:38:27;;;;;;;7.45;2.70;;;;;;;;;;4985349;28;20074;-62
2023/08/03 04:40:53;;;;;;;4.07;2.05;;;;;;;;;;4994228;28;20488;-61
2023/08/03 04:43:19;;;;;;;3.38;1.92;;;;;;;;;;4991057;28;20049;-61
2023/08/03 04:45:45;;;;;;;6.40;2.22;;;;;;;;;;4986535;28;20066;-61
2023/08/03 04:48:12;;;;;;;5.85;1.88;;;;;;;;;;4987185;28;20068;-61
2023/08/03 04:50:38;;;;;;;9.13;2.75;;;;;;;;;;4990694;28;20043;-61
2023/08/03 04:53:04;;;;;;;5.45;2.00;;;;;;;;;;4987739;28;20070;-61
2023/08/03 04:55:31;;;;;;;4.07;2.03;;;;;;;;;;4974824;28;20724;-61
2023/08/03 04:57:57;;;;;;;3.10;1.98;;;;;;;;;;4989831;28;20039;-61
2023/08/03 05:00:23;;;;;;;5.00;2.15;;;;;;;;;;4984356;28;20069;-63
2023/08/03 05:02:49;;;;;;;3.13;2.00;;;;;;;;;;4972452;28;20045;-61
2023/08/03 05:05:15;;;;;;;4.13;2.45;;;;;;;;;;4973649;28;20042;-61
2023/08/03 05:07:41;;;;;;;3.22;1.98;;;;;;;;;;4986618;28;20655;-61
2023/08/03 05:10:07;;;;;;;4.15;2.33;;;;;;;;;;4990475;28;20046;-61
2023/08/03 05:12:34;;;;;;;4.85;2.15;;;;;;;;;;4986691;28;20050;-62
2023/08/03 05:15:00;;;;;;;6.78;2.22;;;;;;;;;;4986459;28;20052;-61
2023/08/03 05:17:26;;;;;;;3.60;1.60;;;;;;;;;;4987954;28;20494;-61
2023/08/03 05:19:52;;;;;;;6.50;2.20;;;;;;;;;;4986276;28;20046;-61
2023/08/03 05:22:18;;;;;;;3.08;1.85;;;;;;;;;;4986909;28;20065;-60
2023/08/03 05:24:44;;;;;;;4.22;1.70;;;;;;;;;;4986274;28;20124;-61
2023/08/03 05:27:10;;;;;;;4.10;2.78;;;;;;;;;;4974825;28;20133;-61
2023/08/03 05:29:36;;;;;;;3.08;1.70;;;;;;;;;;4983910;28;20034;-61
2023/08/03 05:32:04;;;;;;;3.67;2.13;;;;;;;;;;4984963;28;20066;-61
2023/08/03 05:34:31;;;;;;;5.53;2.95;;;;;;;;;;4983580;28;20433;-61
2023/08/03 05:36:57;;;;;;;3.55;1.70;;;;;;;;;;4970843;28;20197;-61
2023/08/03 05:39:29;;;;;;;4.63;2.00;;;;;;;;;;4987047;28;20034;-61
2023/08/03 05:41:56;;;;;;;3.00;1.70;;;;;;;;;;4986869;28;20042;-60
2023/08/03 05:44:22;;;;;;;5.07;1.67;;;;;;;;;;4982723;28;20038;-60
2023/08/03 05:46:48;;;;;;;4.80;1.70;;;;;;;;;;4965144;28;20122;-61
2023/08/03 05:49:15;;;;;;;4.55;1.48;;;22.00;99.90;;;;;;4991410;28;20464;-61
2023/08/03 05:51:40;;;;;;;5.70;2.20;;;18.90;99.90;;;;;;4987378;28;20164;-61
2023/08/03 05:54:09;;;;;;;5.80;1.85;;;;;;;;;;4988064;28;20089;-61
2023/08/03 05:56:35;;;;;;;5.45;1.60;;;;;;;;;;4985778;28;20482;-61
2023/08/03 05:59:03;;;;;;;2.97;1.63;;;;;;;;;;4982068;28;20113;-61
2023/08/03 06:01:29;;;;;;;2.80;1.30;;;;;;;;;;4984721;28;20447;-61
2023/08/03 06:03:55;;;;;;;2.58;1.40;;;;;;;;;;4955745;28;20038;-61
2023/08/03 06:06:21;;;;;;;4.03;1.42;;;;;;;;;;4987670;28;20050;-61
2023/08/03 06:08:52;;;;;;;3.83;1.52;;;;;;;;;;4986448;28;20052;-61
2023/08/03 06:11:20;;;;;;;3.45;1.67;;;;;;;;;;4986524;28;20034;-61
2023/08/03 06:13:49;;;;;;;2.88;1.30;;;;;;;;;;4987470;28;20121;-61
2023/08/03 06:16:16;;;;;;;3.63;1.55;;;;;;;;;;4971800;28;20128;-61
2023/08/03 06:18:54;;;;;;;2.63;1.15;;;;;;;;;;4987749;28;20141;-62
2023/08/03 06:21:21;;;;;;;3.13;1.17;;;;;;;;;;4984907;28;20038;-61
2023/08/03 06:23:49;;;;;;;2.78;1.30;;;;;;;;;;4985014;28;20030;-62
2023/08/03 06:26:17;;;;;;;3.63;1.30;;;;;;;;;;4985440;28;20575;-62
2023/08/03 06:28:44;;;;;;;3.25;1.42;;;;;;;;;;4967816;28;20127;-61
2023/08/03 06:31:17;;;;;;;2.90;1.33;;;;;;;;;;4983864;28;20149;-61
2023/08/03 06:33:44;;;;;;;2.80;1.02;;;;;;;;;;4982101;28;20121;-61
2023/08/03 06:36:13;;;;;;;3.38;1.02;;;;;;;;;;4987541;28;20222;-61
2023/08/03 06:38:39;;;;;;;2.75;1.10;;;;;;;;;;4990253;28;20498;-61
2023/08/03 06:41:05;;;;;;;3.10;1.30;;;;;;;;;;4987743;28;20092;-62
2023/08/03 06:43:32;;;;;;;4.22;1.42;;;;;;;;;;4987987;28;20443;-61
2023/08/03 06:45:58;;;;;;;2.90;1.05;;;;;;;;;;4988267;28;20050;-61
2023/08/03 06:48:24;;;;;;;3.30;1.58;;;;;;;;;;4988088;28;20417;-61
2023/08/03 06:50:50;;;;;;;2.42;1.02;;;;;;;;;;4959760;28;20040;-61
2023/08/03 06:53:16;;;;;;;9.20;2.22;;;;;;;;;;4985703;28;20050;-61
2023/08/03 06:55:48;;;;;;;4.00;1.10;;;;;;;;;;4979996;28;20371;-60
2023/08/03 06:58:14;;;;;;;3.65;1.10;;;;;;;;;;4937681;28;20043;-61
2023/08/03 07:00:41;;;;;;;1.95;1.10;;;;;;;;;;4965130;28;20043;-61
2023/08/03 07:03:08;;;;;;;5.53;1.23;;;;;;;;;;4967236;28;20045;-61
2023/08/03 07:05:34;;;;;;;3.22;1.35;;;;;;;;;;4966434;28;20049;-61
2023/08/03 07:08:00;;;;;;;3.42;1.00;;;;;;;;;;4949366;28;20070;-62
2023/08/03 07:10:26;;;;;;;2.22;1.40;;;;;;;;;;4965322;28;20618;-62
2023/08/03 07:12:53;;;;;;;3.17;1.15;;;;;;;;;;4962474;28;20503;-62
2023/08/03 07:15:19;;;;;;;5.18;1.58;;;;;;;;;;4965625;28;20536;-62
2023/08/03 07:17:46;;;;;;;3.72;1.20;;;;;;;;;;4966954;28;20078;-62
2023/08/03 07:20:12;;;;;;;1.50;0.90;;;;;;;;;;4966016;28;20136;-62
2023/08/03 07:22:38;;;;;;;3.15;1.10;;;;;;;;;;4949391;28;20158;-62
2023/08/03 07:25:05;;;;;;;1.83;1.15;;;;;;;;;;4966589;28;20047;-61
2023/08/03 07:27:31;;;;;;;2.58;1.58;;;;;;;;;;4966498;28;20510;-62
2023/08/03 07:29:57;;;;;;;2.40;1.25;;;;;;;;;;4951630;28;20498;-61
2023/08/03 07:32:24;;;;;;;1.60;1.20;;;;;;;;;;4965629;28;20109;-62
2023/08/03 07:34:50;;;;;;;3.10;1.20;;;;;;;;;;4966180;28;20818;-62
2023/08/03 07:37:16;;;;;;;2.08;1.08;;;;;;;;;;4964722;28;20150;-62
2023/08/03 07:39:42;;;;;;;1.80;0.90;;;;;;;;;;4966569;28;20074;-61
2023/08/03 07:42:08;;;;;;;4.22;1.50;;;;;;;;;;4966154;28;20046;-61
2023/08/03 07:44:34;;;;;;;3.50;1.30;;;;;;;;;;4965931;28;20069;-62
2023/08/03 07:47:01;;;;;;;2.25;1.15;;;;;;;;;;4952109;28;20055;-62
2023/08/03 07:49:27;;;;;;;2.05;1.05;;;;;;;;;;4965913;28;20043;-62
2023/08/03 07:51:53;;;;;;;2.65;1.23;;;;;;;;;;4947689;28;20042;-62
2023/08/03 07:54:19;;;;;;;2.63;1.40;;;;;;;;;;4965826;28;20059;-62
2023/08/03 07:56:45;;;;;;;2.22;1.30;;;;;;;;;;4973295;28;20047;-62
2023/08/03 07:59:12;;;;;;;5.07;1.77;;;;;;;;;;4985389;28;20251;-62
2023/08/03 08:01:39;;;;;;;8.63;1.90;;;;;;;;;;4989645;28;20438;-62
2023/08/03 08:04:05;;;;;;;5.07;1.67;;;;;;;;;;4986538;28;20139;-61
2023/08/03 08:06:31;;;;;;;4.75;1.55;;;;;;;;;;4983215;28;20441;-62
2023/08/03 08:08:58;;;;;;;3.25;1.98;;;;;;;;;;4990645;28;20173;-62
2023/08/03 08:11:24;;;;;;;3.50;1.58;;;;;;;;;;4987552;28;20050;-62
2023/08/03 08:13:50;;;;;;;7.22;1.88;;;;;;;;;;4967332;28;20043;-61
2023/08/03 08:16:16;;;;;;;6.00;1.77;;;;;;;;;;4983010;28;20488;-61
2023/08/03 08:18:43;;;;;;;5.82;2.38;;;;;;;;;;4987008;28;20065;-62
2023/08/03 08:21:12;;;;;;;3.78;1.70;;;;;;;;;;4993442;28;20036;-61
2023/08/03 08:23:39;;;;;;;7.68;2.08;;;;;;;;;;4984300;28;20073;-61
2023/08/03 08:26:11;;;;;;;3.90;1.83;;;;;;;;;;4986224;28;20576;-62
2023/08/03 08:28:37;;;;;;;9.35;2.47;;;;;;;;;;4984205;28;20050;-62
2023/08/03 08:31:04;;;;;;;3.67;1.48;;;;;;;;;;4964301;28;20473;-62
2023/08/03 08:33:30;;;;;;;7.75;2.13;;;;;;;;;;4955632;28;20510;-62
2023/08/03 08:36:00;;;;;;;9.77;1.92;;;;;;;;;;4967407;28;20134;-61
2023/08/03 08:38:26;;;;;;;3.22;1.92;;;;;;;;;;4935260;28;20053;-62
2023/08/03 08:41:05;;;;;;;6.47;1.83;;;;;;;;;;4981063;28;20058;-61
2023/08/03 08:43:31;;;;;;;5.18;2.65;;;;;;;;;;4978835;28;20556;-62
2023/08/03 08:45:57;;;;;;;7.70;2.58;;;;;;;;;;4983493;28;20042;-62
2023/08/03 08:48:23;;;;;;;6.05;1.75;;;;;;;;;;4984143;28;20053;-62
2023/08/03 08:50:50;;;;;;;4.45;2.22;;;;;;;;;;4983950;28;20038;-62
2023/08/03 08:53:16;;;;;;;4.13;2.20;;;;;;;;;;4984303;28;20298;-62
2023/08/03 08:55:42;;;;;;;6.32;2.00;;;;;;;;;;4984563;28;20042;-62
2023/08/03 08:58:09;;;;;;;4.85;2.22;;;;;;;;;;4978929;28;20226;-63
2023/08/03 09:00:43;;;;;;;3.28;1.80;;;;;;;;;;4986624;28;20329;-62
2023/08/03 09:03:10;;;;;;;4.55;1.92;;;;;;;;;;4981918;28;20394;-62
2023/08/03 09:05:37;;;;;;;8.80;2.63;;;;;;;;;;4986157;28;20049;-62
2023/08/03 09:08:04;;;;;;;5.18;1.85;;;;;;;;;;4984015;28;20196;-62
2023/08/03 09:10:47;;;;;;;7.30;2.25;;;;;;;;;;4965393;28;20049;-61
2023/08/03 09:13:26;;;;;;;4.40;2.08;;;;;;;;;;4983089;28;20053;-62
2023/08/03 09:15:53;;;;;;;4.97;2.35;;;;;;;;;;4960954;28;20520;-62
2023/08/03 09:18:19;;;;;;;4.70;2.15;;;;;;;;;;4967710;28;20405;-63
2023/08/03 09:20:45;;;;;;;4.57;2.15;;;;;;;;;;4982121;28;20034;-62
2023/08/03 09:23:26;;;;;;;3.72;2.03;;;;;;;;;;4988037;28;20046;-62
2023/08/03 09:25:52;;;;;;;4.90;2.50;;;;;;;;;;4969469;28;20116;-62
2023/08/03 09:28:19;;;;;;;6.10;2.30;;;;;;;;;;4980545;28;20461;-62
2023/08/03 09:30:51;;;;;;;7.30;1.90;;;;;;;;;;4977979;28;21457;-62
2023/08/03 09:33:17;;;;;;;9.88;2.53;;;;;;;;;;4971077;28;20038;-62
2023/08/03 09:35:45;;;;;;;3.58;2.10;;;;;;;;;;4985314;28;20049;-61
2023/08/03 09:38:24;;;;;;;5.20;2.28;;;;;;;;;;4982235;28;20061;-62
2023/08/03 09:40:51;;;;;;;8.15;2.22;;;;;;;;;;4985195;28;20047;-62
2023/08/03 09:43:18;;;;;;;7.93;2.97;;;;;;;;;;4984933;28;20043;-65
2023/08/03 09:45:47;;;;;;;8.20;2.80;;;;;;;;;;4959532;28;20038;-62
2023/08/03 09:48:13;;;;;;;5.82;2.05;;;;;;;;;;4980517;28;20414;-62
2023/08/03 09:50:40;;;;;;;2.70;1.58;;;;;;;;;;4988802;28;20043;-62
2023/08/03 09:53:10;;;;;;;5.38;1.88;;;;;;;;;;4970129;28;20104;-61
2023/08/03 09:55:39;;;;;;;4.00;1.65;;;;;;;;;;4984464;28;20084;-61
2023/08/03 09:58:09;;;;;;;3.25;1.50;;;;;;;;;;4982040;28;20043;-62
2023/08/03 10:00:36;;;;;;;2.83;1.50;;;;;;;;;;4985761;28;20053;-62
2023/08/03 10:03:07;;;;;;;3.60;1.55;;;;;;;;;;4985523;28;20433;-62
2023/08/03 10:05:36;;;;;;;2.67;1.50;;;;;;;;;;4986201;28;20038;-62
2023/08/03 10:08:06;;;;;;;1.88;1.40;;;;;;;;;;4985317;28;20371;-62
2023/08/03 10:10:41;;;;;;;2.67;1.27;;;;;;;;;;4985568;28;20073;-62
2023/08/03 10:13:07;;;;;;;3.33;1.67;;;;;;;;;;4983328;28;20158;-62
2023/08/03 10:15:33;;;;;;;3.40;1.40;;;;;;;;;;4983583;28;20057;-61
2023/08/03 10:17:59;;;;;;;6.05;1.17;;;;;;;;;;4989652;28;20188;-61
2023/08/03 10:20:26;;;;;;;4.13;1.23;;;;;;;;;;4983263;28;20295;-61
2023/08/03 10:23:11;;;;;;;3.47;2.00;;;;;;;;;;4985247;28;20124;-61
2023/08/03 10:25:55;;;;;;;3.97;1.48;;;;;;;;;;4985905;28;20041;-61
2023/08/03 10:28:25;;;;;;;2.92;1.30;;;;;;;;;;4986554;28;20508;-62
2023/08/03 10:31:07;;;;;;;2.97;1.67;;;;;;;;;;4987048;28;20038;-61
2023/08/03 10:33:51;;;;;;;3.80;1.40;;;19.00;99.90;;;;;;4985881;28;20406;-62
2023/08/03 10:36:33;;;;;;;4.07;1.40;;;22.40;99.90;;;;;;4987359;28;20301;-62
2023/08/03 10:39:04;;;;;;;2.45;1.48;;;22.40;99.90;;;;;;4992254;28;20836;-62
2023/08/03 10:41:41;;;;;;;4.32;1.50;;;22.30;99.90;;;;;;4985004;28;20038;-61
2023/08/03 10:44:09;;;;;;;2.65;1.75;;;22.40;99.90;;;;;;4966335;28;20038;-60
2023/08/03 10:46:43;;;;;;;5.25;1.90;;;22.40;99.90;;;;;;4982328;28;20042;-60
2023/08/03 10:49:18;;;;;;;4.53;1.20;;;22.30;99.90;;;;;;4985627;28;20050;-61
2023/08/03 10:51:44;;;;;;;2.10;1.10;;;22.30;99.90;;;;;;4983347;28;20050;-61
2023/08/03 10:54:10;;;;;;;4.90;1.27;;;22.30;99.90;;;;;;4965506;28;20077;-61
2023/08/03 10:56:36;;;;;;;3.92;1.23;;;22.30;99.90;;;;;;4983895;28;20042;-60
2023/08/03 10:59:03;;;;;;;3.33;1.40;;;22.30;99.90;;;;;;4985543;28;20458;-61
2023/08/03 11:01:30;;;;;;;2.45;1.45;;;22.30;99.90;;;;;;4980150;28;20361;-60
2023/08/03 11:03:56;;;;;;;3.45;1.17;;;22.30;99.90;;;;;;4984375;28;20037;-61
2023/08/03 11:06:22;;;;;;;4.45;1.88;;;22.30;99.90;;;;;;4969690;28;20273;-61
2023/08/03 11:08:48;;;;;;;4.40;1.27;;;22.30;99.90;;;;;;4966349;28;20116;-60
2023/08/03 11:11:21;;;;;;;2.25;1.20;;;22.40;99.90;;;;;;4966775;28;20573;-61
2023/08/03 11:13:49;;;;;;;3.83;1.13;;;22.40;99.90;;;;;;4981271;28;20483;-61
2023/08/03 11:16:15;;;;;;;3.55;1.15;;;22.40;99.90;;;;;;4987793;28;20050;-61
2023/08/03 11:18:48;;;;;;;2.75;1.20;;;22.50;99.90;;;;;;4968448;28;20049;-61
2023/08/03 11:21:15;;;;;;;3.38;1.58;;;22.50;99.90;;;;;;4969490;28;20036;-61
2023/08/03 11:23:41;;;;;;;3.70;1.27;;;22.60;99.90;;;;;;4969525;28;20046;-61
2023/08/03 11:26:10;;;;;;;2.92;1.20;;;22.60;99.90;;;;;;4985589;28;20513;-61
2023/08/03 11:28:43;;;;;;;3.53;2.15;;;22.60;99.90;;;;;;4984902;28;20054;-62
2023/08/03 11:31:20;;;;;;;6.88;1.98;;;22.60;99.90;;;;;;4984415;28;20030;-62
2023/08/03 11:33:54;;;;;;;3.67;2.03;;;22.60;99.90;;;;;;4983954;28;20049;-62
2023/08/03 11:36:22;;;;;;;5.00;1.98;;;22.60;99.90;;;;;;4965744;28;20521;-62
2023/08/03 11:38:49;;;;;;;6.20;1.60;;;22.60;99.90;;;;;;4975779;28;20104;-62
2023/08/03 11:41:17;;;;;;;4.35;1.98;;;22.60;99.90;;;;;;4986506;28;20144;-62
2023/08/03 11:43:43;;;;;;;8.32;2.22;;;22.60;99.90;;;;;;4986173;28;20046;-62
2023/08/03 11:46:09;;;;;;;4.53;1.90;;;22.60;99.90;;;;;;4985051;28;20092;-62
2023/08/03 11:48:35;;;;;;;5.35;2.15;;;22.60;99.90;;;;;;4973666;28;20042;-62
2023/08/03 11:51:03;;;;;;;5.53;2.20;;;22.60;99.90;;;;;;4984135;28;20100;-62
2023/08/03 11:53:29;;;;;;;6.93;2.75;;;22.60;99.90;;;;;;4984604;28;20125;-62
2023/08/03 11:55:59;;;;;;;7.55;2.33;;;22.60;99.90;;;;;;4968253;28;20038;-62
2023/08/03 11:58:26;;;;;;;3.88;1.85;;;22.60;99.90;;;;;;4979020;28;20068;-62
2023/08/03 12:01:00;;;;;;;6.72;2.22;;;22.60;99.90;;;;;;4983746;28;20154;-62
2023/08/03 12:03:33;;;;;;;5.55;2.05;;;22.70;99.90;;;;;;4983787;28;20177;-62
2023/08/03 12:06:10;;;;;;;6.63;1.83;;;22.60;99.90;;;;;;4972599;28;20045;-62
2023/08/03 12:08:46;;;;;;;8.25;2.70;;;22.70;99.90;;;;;;4981758;28;20038;-62
2023/08/03 12:11:15;;;;;;;5.60;1.88;;;22.70;99.90;;;;;;4986071;28;20042;-62
2023/08/03 12:13:41;;;;;;;6.43;1.98;;;22.70;99.90;;;;;;4966439;28;20470;-62
2023/08/03 12:16:07;;;;;;;5.80;2.33;;;22.60;99.90;;;;;;4967832;28;20133;-62
2023/08/03 12:18:36;;;;;;;6.38;2.22;;;22.60;99.90;;;;;;4962284;28;20085;-62
2023/08/03 12:21:03;;;;;;;4.10;2.22;;;22.60;99.90;;;;;;4983193;28;20042;-62
2023/08/03 12:23:29;;;;;;;4.30;1.98;;;22.60;99.90;;;;;;4989467;28;20182;-62
2023/08/03 12:25:54;;;;;;;5.40;2.65;;;22.50;99.90;;;;;;4984565;28;20100;-62
2023/08/03 12:28:21;;;;;;;5.40;2.28;;;22.50;99.90;;;;;;4981535;28;20105;-62
2023/08/03 12:30:47;;;;;;;5.32;2.47;;;22.40;99.90;;;;;;4986336;28;20069;-62
2023/08/03 12:33:13;;;;;;;12.00;3.50;;;22.40;99.90;;;;;;4983440;28;20482;-62
2023/08/03 12:35:39;;;;;;;6.00;3.65;;;22.40;99.90;;;;;;4965981;28;20057;-62
2023/08/03 12:38:05;;;;;;;8.05;3.38;;;22.30;99.90;;;;;;4981276;28;20493;-64
2023/08/03 12:40:31;;;;;;;13.48;3.83;;;22.30;99.90;;;;;;4985233;28;20037;-62
2023/08/03 12:42:56;;;;;;;5.70;2.70;;;22.30;99.90;;;;;;4984778;28;20322;-62
2023/08/03 12:45:25;;;;;;;7.93;3.30;;;22.20;99.90;;;;;;4983451;28;20164;-62
2023/08/03 12:47:54;;;;;;;9.70;3.40;;;22.20;99.90;;;;;;4984500;28;20129;-62
2023/08/03 12:50:20;;;;;;;7.72;2.97;;;22.20;99.90;;;;;;4989787;28;20161;-63
2023/08/03 12:52:46;;;;;;;10.15;3.22;;;22.20;99.90;;;;;;4989383;28;20121;-62
2023/08/03 12:55:12;;;;;;;7.30;3.78;;;22.20;99.90;;;;;;4977417;28;20042;-63
2023/08/03 12:57:38;;;;;;;7.40;3.55;;;22.10;99.90;;;;;;4992183;28;20046;-61
2023/08/03 13:00:05;;;;;;;7.90;3.40;;;22.10;99.90;;;;;;4988564;28;20042;-61
2023/08/03 13:02:31;;;;;;;7.65;4.07;;;22.10;99.90;;;;;;4986457;28;20042;-63
2023/08/03 13:04:57;;;;;;;8.05;3.42;;;22.10;99.90;;;;;;4992980;28;20061;-62
2023/08/03 13:07:23;;;;;;;10.75;4.05;;;22.10;99.90;;;;;;4974268;28;20049;-62
2023/08/03 13:09:49;;;;;;;8.45;3.47;;;22.00;99.90;;;;;;4991319;28;20054;-62
2023/08/03 13:12:15;;;;;;;10.73;3.40;;;22.10;99.90;;;;;;4958834;28;20038;-62
2023/08/03 13:14:41;;;;;;;8.85;3.25;;;22.10;99.90;;;;;;4992660;28;20042;-63
2023/08/03 13:17:07;;;;;;;11.43;3.95;;;22.10;99.90;;;;;;4984360;28;20069;-61
2023/08/03 13:19:33;;;;;;;9.02;3.42;;;22.10;99.90;;;;;;4982756;28;20802;-62
2023/08/03 13:21:59;;;;;;;11.38;3.92;;;22.10;99.90;;;;;;4985618;28;20184;-62
2023/08/03 13:24:24;;;;;;;8.75;3.58;;;22.10;99.90;;;;;;4983942;28;20038;-62
2023/08/03 13:26:50;;;;;;;8.02;3.83;;;22.20;99.90;;;;;;4978841;28;20097;-61
2023/08/03 13:29:20;;;;;;;10.82;3.83;;;22.30;99.90;;;;;;4969345;28;20045;-62
2023/08/03 13:31:48;;;;;;;9.52;3.60;;;22.40;99.90;;;;;;4984795;28;20092;-61
2023/08/03 13:34:14;;;;;;;8.75;3.90;;;22.40;99.90;;;;;;4983842;28;20072;-62
2023/08/03 13:36:40;;;;;;;11.00;3.67;;;22.50;99.90;;;;;;4989838;28;20042;-62
2023/08/03 13:39:06;;;;;;;11.77;4.78;;;22.50;99.90;;;;;;4994999;28;20095;-62
2023/08/03 13:41:31;;;;;;;11.40;4.47;;;22.60;99.90;;;;;;4986755;28;20051;-62
2023/08/03 13:43:57;;;;;;;8.35;3.05;;;22.60;99.90;;;;;;4994952;28;20050;-62
2023/08/03 13:46:23;;;;;;;10.77;3.92;;;22.60;99.90;;;;;;4984296;28;20042;-62
2023/08/03 13:48:50;;;;;;;8.05;3.90;;;22.70;99.90;;;;;;4986106;28;20038;-62
2023/08/03 13:51:16;;;;;;;8.95;3.78;;;22.80;99.90;;;;;;4986908;28;20124;-62
2023/08/03 13:53:41;;;;;;;9.30;3.90;;;22.90;99.90;;;;;;4986229;28;20073;-62
2023/08/03 13:56:07;;;;;;;10.82;4.32;;;22.90;99.90;;;;;;4969627;28;20042;-62
2023/08/03 13:58:33;;;;;;;7.80;3.60;;;23.00;99.90;;;;;;4983962;28;20034;-62
2023/08/03 14:01:00;;;;;;;4.40;3.17;;;22.90;99.90;;;;;;4970174;28;20042;-62
2023/08/03 14:03:26;;;;;;;8.10;3.10;;;23.00;99.90;;;;;;4985076;28;20077;-62
2023/08/03 14:05:54;;;;;;;7.03;3.80;;;23.00;99.90;;;;;;4986451;28;20100;-62
2023/08/03 14:08:20;;;;;;;6.57;3.15;;;22.90;99.90;;;;;;4985391;28;20123;-62